TimeEDT,TemperatureF,Dew PointF,Humidity,Sea Level PressureIn,VisibilityMPH,Wind Direction,Wind SpeedMPH,Gust SpeedMPH,PrecipitationIn,Events,Conditions,WindDirDegrees,DateUTC
12:15 AM,67.6,65.8,94,30.11,7.0,Calm,Calm,-,N/A,,Clear,0,2013-06-09 04:15:00
12:35 AM,68.0,65.8,93,30.11,7.0,Calm,Calm,-,N/A,,Clear,0,2013-06-09 04:35:00
12:55 AM,67.6,65.7,93,30.11,5.0,Calm,Calm,-,N/A,,Clear,0,2013-06-09 04:55:00
1:15 AM,68.2,65.8,92,30.10,10.0,Calm,Calm,-,N/A,,Clear,0,2013-06-09 05:15:00
1:35 AM,67.5,65.3,93,30.10,7.0,Calm,Calm,-,N/A,,Clear,0,2013-06-09 05:35:00
1:55 AM,67.5,65.5,93,30.11,7.0,Calm,Calm,-,N/A,,Clear,0,2013-06-09 05:55:00
2:15 AM,67.3,64.8,92,30.11,7.0,Calm,Calm,-,N/A,,Clear,0,2013-06-09 06:15:00
2:35 AM,68.0,65.1,90,30.11,10.0,Calm,Calm,-,N/A,,Clear,0,2013-06-09 06:35:00
2:55 AM,67.8,64.4,89,30.10,10.0,Calm,Calm,-,N/A,,Clear,0,2013-06-09 06:55:00
3:15 AM,67.8,64.6,89,30.11,10.0,SE,3.5,-,N/A,,Clear,140,2013-06-09 07:15:00
3:35 AM,70.0,64.4,82,30.11,10.0,SE,5.8,-,N/A,,Clear,140,2013-06-09 07:35:00
3:55 AM,69.3,64.2,84,30.11,10.0,SSE,4.6,-,N/A,,Clear,150,2013-06-09 07:55:00
4:15 AM,69.4,63.9,82,30.12,10.0,South,3.5,-,N/A,,Clear,170,2013-06-09 08:15:00
4:35 AM,68.9,64.0,84,30.12,10.0,SSE,5.8,-,N/A,,Clear,160,2013-06-09 08:35:00
4:55 AM,68.5,64.0,85,30.12,10.0,SSE,3.5,-,N/A,,Scattered Clouds,150,2013-06-09 08:55:00
5:15 AM,68.5,64.4,87,30.13,10.0,South,3.5,-,N/A,,Clear,170,2013-06-09 09:15:00
5:35 AM,67.3,64.0,89,30.13,10.0,Calm,Calm,-,N/A,,Clear,0,2013-06-09 09:35:00
5:55 AM,67.6,64.4,89,30.13,10.0,SSE,3.5,-,N/A,,Clear,150,2013-06-09 09:55:00
6:15 AM,69.4,64.8,85,30.14,10.0,SSE,4.6,-,N/A,,Clear,160,2013-06-09 10:15:00
6:35 AM,68.9,65.1,88,30.14,10.0,South,5.8,-,N/A,,Clear,170,2013-06-09 10:35:00
6:55 AM,68.9,65.5,89,30.15,10.0,South,4.6,-,N/A,,Clear,170,2013-06-09 10:55:00
7:15 AM,69.4,66.2,89,30.16,10.0,SSW,4.6,-,N/A,,Clear,200,2013-06-09 11:15:00
7:35 AM,69.8,66.6,89,30.16,7.0,SSW,4.6,-,N/A,,Clear,200,2013-06-09 11:35:00
7:55 AM,70.9,67.3,88,30.16,10.0,SSW,3.5,-,N/A,,Clear,200,2013-06-09 11:55:00
8:15 AM,72.5,68.0,86,30.17,10.0,SSW,3.5,-,N/A,,Clear,210,2013-06-09 12:15:00
8:35 AM,73.8,68.2,83,30.18,10.0,South,3.5,-,N/A,,Clear,190,2013-06-09 12:35:00
8:55 AM,74.5,68.7,82,30.18,10.0,SSW,3.5,-,N/A,,Clear,210,2013-06-09 12:55:00
9:15 AM,76.1,68.7,78,30.18,10.0,South,3.5,-,N/A,,Clear,180,2013-06-09 13:15:00
9:35 AM,77.0,68.2,74,30.18,10.0,South,5.8,-,N/A,,Clear,190,2013-06-09 13:35:00
9:55 AM,79.0,68.2,69,30.18,10.0,SSW,3.5,-,N/A,,Clear,200,2013-06-09 13:55:00
10:15 AM,80.6,66.6,62,30.17,10.0,South,5.8,-,N/A,,Clear,180,2013-06-09 14:15:00
10:35 AM,81.0,65.5,59,30.17,10.0,South,5.8,-,N/A,,Clear,190,2013-06-09 14:35:00
10:55 AM,81.9,66.0,59,30.17,10.0,South,5.8,-,N/A,,Clear,190,2013-06-09 14:55:00
11:15 AM,82.2,65.8,57,30.16,10.0,SSE,5.8,-,N/A,,Scattered Clouds,160,2013-06-09 15:15:00
11:35 AM,82.6,66.4,58,30.17,10.0,SSW,4.6,-,N/A,,Scattered Clouds,200,2013-06-09 15:35:00
11:55 AM,82.9,66.4,57,30.17,10.0,South,4.6,-,N/A,,Scattered Clouds,190,2013-06-09 15:55:00
12:15 PM,82.9,66.0,56,30.16,10.0,South,3.5,-,N/A,,Clear,180,2013-06-09 16:15:00
12:35 PM,84.0,65.8,54,30.16,10.0,South,5.8,-,N/A,,Scattered Clouds,190,2013-06-09 16:35:00
12:55 PM,84.2,66.2,55,30.16,10.0,SSE,4.6,-,N/A,,Scattered Clouds,160,2013-06-09 16:55:00
1:15 PM,84.4,65.3,53,30.14,10.0,SE,6.9,-,N/A,,Scattered Clouds,130,2013-06-09 17:15:00
1:35 PM,85.1,65.5,52,30.14,10.0,SW,3.5,-,N/A,,Scattered Clouds,230,2013-06-09 17:35:00
1:55 PM,85.1,64.4,50,30.13,10.0,SW,5.8,-,N/A,,Clear,230,2013-06-09 17:55:00
2:15 PM,84.9,64.9,51,30.12,10.0,South,5.8,-,N/A,,Scattered Clouds,170,2013-06-09 18:15:00
2:35 PM,85.3,64.4,49,30.12,10.0,South,5.8,-,N/A,,Scattered Clouds,170,2013-06-09 18:35:00
2:55 PM,85.3,64.9,50,30.11,10.0,South,5.8,-,N/A,,Clear,170,2013-06-09 18:55:00
3:15 PM,84.9,65.7,52,30.10,10.0,SSE,3.5,-,N/A,,Scattered Clouds,150,2013-06-09 19:15:00
3:35 PM,85.6,65.3,50,30.10,10.0,South,6.9,-,N/A,,Scattered Clouds,190,2013-06-09 19:35:00
3:55 PM,86.5,65.3,49,30.09,10.0,SE,6.9,-,N/A,,Scattered Clouds,140,2013-06-09 19:55:00
4:15 PM,86.2,64.9,49,30.07,10.0,SSE,8.1,-,N/A,,Clear,160,2013-06-09 20:15:00
4:35 PM,85.6,64.4,49,30.08,10.0,SSE,6.9,-,N/A,,Clear,150,2013-06-09 20:35:00
4:55 PM,85.8,64.4,49,30.08,10.0,SSE,9.2,-,N/A,,Clear,150,2013-06-09 20:55:00
5:15 PM,85.3,65.3,51,30.08,10.0,SSE,8.1,-,N/A,,Scattered Clouds,150,2013-06-09 21:15:00
5:35 PM,84.2,66.6,55,30.08,10.0,SSE,5.8,-,N/A,,Scattered Clouds,160,2013-06-09 21:35:00
5:55 PM,84.9,66.4,54,30.09,10.0,South,5.8,-,N/A,,Scattered Clouds,170,2013-06-09 21:55:00
6:15 PM,84.0,66.0,55,30.09,10.0,South,6.9,-,N/A,,Clear,170,2013-06-09 22:15:00
6:35 PM,83.5,67.1,58,30.09,10.0,South,4.6,-,N/A,,Clear,170,2013-06-09 22:35:00
6:55 PM,82.6,67.8,61,30.09,10.0,SSE,4.6,-,N/A,,Clear,150,2013-06-09 22:55:00
7:15 PM,81.5,67.8,63,30.09,10.0,South,3.5,-,N/A,,Clear,180,2013-06-09 23:15:00
7:35 PM,80.6,67.8,65,30.09,10.0,South,3.5,-,N/A,,Clear,170,2013-06-09 23:35:00
7:55 PM,79.7,68.2,68,30.09,10.0,SSE,3.5,-,N/A,,Clear,160,2013-06-09 23:55:00
8:15 PM,79.0,68.4,70,30.09,10.0,South,4.6,-,N/A,,Clear,180,2013-06-10 00:15:00
8:35 PM,78.1,68.9,73,30.09,10.0,South,4.6,-,N/A,,Scattered Clouds,180,2013-06-10 00:35:00
8:55 PM,78.1,68.7,73,30.09,10.0,SSE,3.5,-,N/A,,Mostly Cloudy,160,2013-06-10 00:55:00
9:15 PM,77.9,68.9,74,30.10,10.0,South,5.8,-,N/A,,Mostly Cloudy,170,2013-06-10 01:15:00
9:35 PM,77.9,69.1,74,30.10,10.0,SSE,3.5,-,N/A,,Scattered Clouds,160,2013-06-10 01:35:00
9:55 PM,76.8,67.8,74,30.12,7.0,South,13.8,21.9,0.01,Rain,Heavy Rain,180,2013-06-10 01:55:00
10:15 PM,72.7,69.1,88,30.14,5.0,SSW,9.2,-,0.04,Rain,Rain,200,2013-06-10 02:15:00
10:35 PM,72.0,69.1,91,30.13,7.0,South,6.9,-,0.06,Rain,Light Rain,170,2013-06-10 02:35:00
10:55 PM,71.6,68.9,91,30.12,7.0,South,6.9,-,0.06,Rain,Light Rain,170,2013-06-10 02:55:00
11:15 PM,71.1,68.7,92,30.12,5.0,South,5.8,-,N/A,,Clear,180,2013-06-10 03:15:00
11:35 PM,70.9,68.5,92,30.12,7.0,South,5.8,-,N/A,,Clear,190,2013-06-10 03:35:00
11:55 PM,70.7,68.4,92,30.12,10.0,South,5.8,-,N/A,,Scattered Clouds,190,2013-06-10 03:55:00